sensor_id;sensor_type;location;lat;lon;timestamp;pressure;altitude;pressure_sealevel;temperature;humidity
76050;BME280;64967;50.234;19.224;2023-06-04T00:02:25;98846.34;;;8.36;75.53
76050;BME280;64967;50.234;19.224;2023-06-04T00:04:56;98838.56;;;8.41;76.73
76050;BME280;64967;50.234;19.224;2023-06-04T00:07:41;98841.41;;;8.39;75.86
76050;BME280;64967;50.234;19.224;2023-06-04T00:10:29;98839.28;;;8.35;76.12
76050;BME280;64967;50.234;19.224;2023-06-04T00:13:16;98829.19;;;8.29;75.74
76050;BME280;64967;50.234;19.224;2023-06-04T00:16:08;98812.25;;;8.20;75.26
76050;BME280;64967;50.234;19.224;2023-06-04T00:18:44;98833.25;;;8.25;75.03
76050;BME280;64967;50.234;19.224;2023-06-04T00:21:11;98816.91;;;8.26;75.50
76050;BME280;64967;50.234;19.224;2023-06-04T00:23:38;98808.38;;;8.23;75.58
76050;BME280;64967;50.234;19.224;2023-06-04T00:26:05;98807.53;;;8.22;75.75
76050;BME280;64967;50.234;19.224;2023-06-04T00:28:32;98800.47;;;8.21;75.32
76050;BME280;64967;50.234;19.224;2023-06-04T00:30:59;98798.72;;;8.28;76.94
76050;BME280;64967;50.234;19.224;2023-06-04T00:33:26;98799.28;;;8.24;75.52
76050;BME280;64967;50.234;19.224;2023-06-04T00:35:53;98798.22;;;8.25;76.43
76050;BME280;64967;50.234;19.224;2023-06-04T00:38:20;98811.03;;;8.31;76.58
76050;BME280;64967;50.234;19.224;2023-06-04T00:40:47;98813.53;;;8.32;75.96
76050;BME280;64967;50.234;19.224;2023-06-04T00:43:14;98812.34;;;8.35;74.96
76050;BME280;64967;50.234;19.224;2023-06-04T00:45:41;98815.69;;;8.37;76.06
76050;BME280;64967;50.234;19.224;2023-06-04T00:48:09;98811.50;;;8.34;74.84
76050;BME280;64967;50.234;19.224;2023-06-04T00:50:36;98795.19;;;8.28;76.40
76050;BME280;64967;50.234;19.224;2023-06-04T00:53:05;98811.88;;;8.31;77.04
76050;BME280;64967;50.234;19.224;2023-06-04T00:55:32;98810.31;;;8.29;75.49
76050;BME280;64967;50.234;19.224;2023-06-04T00:57:59;98808.66;;;8.28;76.73
76050;BME280;64967;50.234;19.224;2023-06-04T01:00:27;98798.72;;;8.28;77.92
76050;BME280;64967;50.234;19.224;2023-06-04T01:02:55;98798.56;;;8.30;76.83
76050;BME280;64967;50.234;19.224;2023-06-04T01:08:14;98788.50;;;8.24;76.91
76050;BME280;64967;50.234;19.224;2023-06-04T01:11:01;98748.19;;;7.93;76.87
76050;BME280;64967;50.234;19.224;2023-06-04T01:13:48;98798.44;;;8.23;76.76
76050;BME280;64967;50.234;19.224;2023-06-04T01:28:02;98780.97;;;7.96;79.66
76050;BME280;64967;50.234;19.224;2023-06-04T01:30:34;98787.75;;;7.92;79.69
76050;BME280;64967;50.234;19.224;2023-06-04T01:33:02;98798.69;;;7.91;79.97
76050;BME280;64967;50.234;19.224;2023-06-04T01:35:29;98793.78;;;7.94;79.25
76050;BME280;64967;50.234;19.224;2023-06-04T01:37:59;98795.81;;;7.92;78.61
76050;BME280;64967;50.234;19.224;2023-06-04T01:40:26;98799.16;;;7.94;78.43
76050;BME280;64967;50.234;19.224;2023-06-04T01:42:54;98805.09;;;7.90;79.22
76050;BME280;64967;50.234;19.224;2023-06-04T01:45:22;98801.91;;;7.86;78.89
76050;BME280;64967;50.234;19.224;2023-06-04T01:47:50;98799.59;;;7.83;80.04
76050;BME280;64967;50.234;19.224;2023-06-04T01:50:18;98798.75;;;7.83;79.69
76050;BME280;64967;50.234;19.224;2023-06-04T01:52:45;98798.75;;;7.83;80.56
76050;BME280;64967;50.234;19.224;2023-06-04T01:55:16;98796.22;;;7.81;80.22
76050;BME280;64967;50.234;19.224;2023-06-04T01:57:45;98798.91;;;7.81;80.65
76050;BME280;64967;50.234;19.224;2023-06-04T02:00:13;98796.06;;;7.83;79.79
76050;BME280;64967;50.234;19.224;2023-06-04T02:02:42;98797.06;;;7.82;81.18
76050;BME280;64967;50.234;19.224;2023-06-04T02:05:10;98794.22;;;7.83;80.61
76050;BME280;64967;50.234;19.224;2023-06-04T02:07:39;98797.59;;;7.77;80.55
76050;BME280;64967;50.234;19.224;2023-06-04T02:10:08;98796.06;;;7.83;80.45
76050;BME280;64967;50.234;19.224;2023-06-04T02:12:40;98791.84;;;7.80;80.53
76050;BME280;64967;50.234;19.224;2023-06-04T02:15:10;98797.91;;;7.82;80.73
76050;BME280;64967;50.234;19.224;2023-06-04T02:17:37;98802.63;;;7.80;80.72
76050;BME280;64967;50.234;19.224;2023-06-04T02:20:07;98795.66;;;7.63;81.86
76050;BME280;64967;50.234;19.224;2023-06-04T02:22:37;98777.72;;;7.55;81.95
76050;BME280;64967;50.234;19.224;2023-06-04T02:25:05;98792.81;;;7.65;82.28
76050;BME280;64967;50.234;19.224;2023-06-04T02:27:32;98790.72;;;7.52;83.47
76050;BME280;64967;50.234;19.224;2023-06-04T02:29:59;98799.06;;;7.57;82.72
76050;BME280;64967;50.234;19.224;2023-06-04T02:32:26;98791.97;;;7.64;81.96
76050;BME280;64967;50.234;19.224;2023-06-04T02:34:53;98795.84;;;7.61;82.01
76050;BME280;64967;50.234;19.224;2023-06-04T02:37:21;98798.72;;;7.60;82.45
76050;BME280;64967;50.234;19.224;2023-06-04T02:39:49;98799.72;;;7.59;81.41
76050;BME280;64967;50.234;19.224;2023-06-04T02:42:16;98800.09;;;7.56;82.15
76050;BME280;64967;50.234;19.224;2023-06-04T02:44:43;98804.63;;;7.55;81.98
76050;BME280;64967;50.234;19.224;2023-06-04T02:47:10;98802.13;;;7.54;82.27
76050;BME280;64967;50.234;19.224;2023-06-04T02:49:37;98797.09;;;7.51;82.45
76050;BME280;64967;50.234;19.224;2023-06-04T02:52:04;98804.81;;;7.54;81.97
76050;BME280;64967;50.234;19.224;2023-06-04T02:54:31;98797.09;;;7.51;83.36
76050;BME280;64967;50.234;19.224;2023-06-04T02:56:58;98802.47;;;7.51;83.61
76050;BME280;64967;50.234;19.224;2023-06-04T02:59:25;98791.53;;;7.52;83.01
76050;BME280;64967;50.234;19.224;2023-06-04T03:01:52;98795.06;;;7.53;83.06
76050;BME280;64967;50.234;19.224;2023-06-04T03:04:19;98792.41;;;7.45;84.07
76050;BME280;64967;50.234;19.224;2023-06-04T03:06:47;98795.09;;;7.45;83.78
76050;BME280;64967;50.234;19.224;2023-06-04T03:09:14;98792.88;;;7.48;83.40
76050;BME280;64967;50.234;19.224;2023-06-04T03:11:41;98796.09;;;7.52;83.07
76050;BME280;64967;50.234;19.224;2023-06-04T03:14:08;98793.88;;;7.55;83.28
76050;BME280;64967;50.234;19.224;2023-06-04T03:16:35;98801.28;;;7.53;82.50
76050;BME280;64967;50.234;19.224;2023-06-04T03:19:06;98798.78;;;7.52;83.80
76050;BME280;64967;50.234;19.224;2023-06-04T03:21:33;98789.19;;;7.49;82.98
76050;BME280;64967;50.234;19.224;2023-06-04T03:24:00;98801.41;;;7.60;84.06
76050;BME280;64967;50.234;19.224;2023-06-04T03:26:28;98793.16;;;7.61;83.58
76050;BME280;64967;50.234;19.224;2023-06-04T03:28:55;98797.47;;;7.71;82.68
76050;BME280;64967;50.234;19.224;2023-06-04T03:31:22;98799.69;;;7.67;84.65
76050;BME280;64967;50.234;19.224;2023-06-04T03:33:49;98796.63;;;7.70;83.49
76050;BME280;64967;50.234;19.224;2023-06-04T03:36:16;98798.44;;;7.78;82.84
76050;BME280;64967;50.234;19.224;2023-06-04T03:38:45;98800.13;;;7.79;82.48
76050;BME280;64967;50.234;19.224;2023-06-04T03:41:12;98806.75;;;7.91;83.22
76050;BME280;64967;50.234;19.224;2023-06-04T03:43:40;98818.47;;;7.98;82.74
76050;BME280;64967;50.234;19.224;2023-06-04T03:46:07;98809.56;;;7.97;82.80
76050;BME280;64967;50.234;19.224;2023-06-04T03:48:34;98800.78;;;8.03;83.75
76050;BME280;64967;50.234;19.224;2023-06-04T03:51:01;98796.31;;;8.11;82.26
76050;BME280;64967;50.234;19.224;2023-06-04T03:53:28;98803.69;;;8.17;81.93
76050;BME280;64967;50.234;19.224;2023-06-04T03:55:55;98803.63;;;8.25;81.33
76050;BME280;64967;50.234;19.224;2023-06-04T03:58:22;98803.22;;;8.36;82.11
76050;BME280;64967;50.234;19.224;2023-06-04T04:00:50;98805.84;;;8.44;80.38
76050;BME280;64967;50.234;19.224;2023-06-04T04:03:18;98805.00;;;8.43;80.32
76050;BME280;64967;50.234;19.224;2023-06-04T04:05:45;98809.44;;;8.59;81.48
76050;BME280;64967;50.234;19.224;2023-06-04T04:08:12;98805.34;;;8.63;81.55
76050;BME280;64967;50.234;19.224;2023-06-04T04:10:43;98812.41;;;8.79;79.82
76050;BME280;64967;50.234;19.224;2023-06-04T04:13:10;98801.72;;;8.85;79.50
76050;BME280;64967;50.234;19.224;2023-06-04T04:15:37;98804.63;;;8.99;80.15
76050;BME280;64967;50.234;19.224;2023-06-04T04:18:04;98800.41;;;9.11;80.52
76050;BME280;64967;50.234;19.224;2023-06-04T04:20:35;98795.19;;;9.24;78.98
76050;BME280;64967;50.234;19.224;2023-06-04T04:23:02;98798.16;;;9.29;78.94
76050;BME280;64967;50.234;19.224;2023-06-04T04:25:29;98799.19;;;9.43;78.60
76050;BME280;64967;50.234;19.224;2023-06-04T04:27:59;98798.72;;;9.39;78.85
76050;BME280;64967;50.234;19.224;2023-06-04T04:30:27;98797.59;;;9.48;78.13
76050;BME280;64967;50.234;19.224;2023-06-04T04:32:55;98799.31;;;9.70;77.51
76050;BME280;64967;50.234;19.224;2023-06-04T04:35:23;98799.59;;;9.97;76.03
76050;BME280;64967;50.234;19.224;2023-06-04T04:37:50;98796.72;;;10.19;76.57
76050;BME280;64967;50.234;19.224;2023-06-04T04:40:17;98806.16;;;10.51;74.73
76050;BME280;64967;50.234;19.224;2023-06-04T04:42:44;98801.59;;;11.14;70.61
76050;BME280;64967;50.234;19.224;2023-06-04T04:45:11;98813.94;;;11.71;69.47
76050;BME280;64967;50.234;19.224;2023-06-04T04:47:38;98810.13;;;12.19;67.39
76050;BME280;64967;50.234;19.224;2023-06-04T04:50:06;98807.25;;;12.47;67.89
76050;BME280;64967;50.234;19.224;2023-06-04T04:52:33;98814.13;;;12.63;63.47
76050;BME280;64967;50.234;19.224;2023-06-04T04:55:00;98808.47;;;12.58;66.23
76050;BME280;64967;50.234;19.224;2023-06-04T04:57:27;98810.78;;;12.67;66.33
76050;BME280;64967;50.234;19.224;2023-06-04T04:59:54;98815.97;;;13.08;64.89
76050;BME280;64967;50.234;19.224;2023-06-04T05:02:21;98812.38;;;13.34;63.80
76050;BME280;64967;50.234;19.224;2023-06-04T05:04:48;98811.91;;;13.95;63.21
76050;BME280;64967;50.234;19.224;2023-06-04T05:07:15;98820.66;;;14.35;60.02
76050;BME280;64967;50.234;19.224;2023-06-04T05:09:42;98811.66;;;14.41;60.46
76050;BME280;64967;50.234;19.224;2023-06-04T05:12:09;98820.72;;;14.59;58.23
76050;BME280;64967;50.234;19.224;2023-06-04T05:14:36;98817.66;;;14.74;57.26
76050;BME280;64967;50.234;19.224;2023-06-04T05:17:03;98819.81;;;15.33;57.73
76050;BME280;64967;50.234;19.224;2023-06-04T05:19:30;98826.47;;;15.37;58.16
76050;BME280;64967;50.234;19.224;2023-06-04T05:21:59;98829.22;;;15.74;58.33
76050;BME280;64967;50.234;19.224;2023-06-04T05:24:30;98824.63;;;15.74;54.74
76050;BME280;64967;50.234;19.224;2023-06-04T05:26:58;98820.22;;;16.03;56.26
76050;BME280;64967;50.234;19.224;2023-06-04T05:29:25;98825.50;;;15.86;55.02
76050;BME280;64967;50.234;19.224;2023-06-04T05:31:52;98804.19;;;15.65;58.08
76050;BME280;64967;50.234;19.224;2023-06-04T05:34:19;98824.44;;;16.17;57.10
76050;BME280;64967;50.234;19.224;2023-06-04T05:36:48;98824.94;;;16.26;55.42
76050;BME280;64967;50.234;19.224;2023-06-04T05:39:15;98818.84;;;16.83;54.48
76050;BME280;64967;50.234;19.224;2023-06-04T05:41:42;98814.81;;;17.32;52.38
76050;BME280;64967;50.234;19.224;2023-06-04T05:44:09;98826.56;;;17.68;52.79
76050;BME280;64967;50.234;19.224;2023-06-04T05:46:36;98830.75;;;17.99;55.01
76050;BME280;64967;50.234;19.224;2023-06-04T05:49:03;98824.88;;;18.63;49.05
76050;BME280;64967;50.234;19.224;2023-06-04T05:51:30;98828.75;;;18.22;48.04
76050;BME280;64967;50.234;19.224;2023-06-04T05:53:58;98823.22;;;18.62;48.72
76050;BME280;64967;50.234;19.224;2023-06-04T05:56:25;98826.38;;;18.88;45.77
76050;BME280;64967;50.234;19.224;2023-06-04T05:58:53;98827.09;;;19.33;46.29
76050;BME280;64967;50.234;19.224;2023-06-04T06:01:20;98818.41;;;18.69;44.41
76050;BME280;64967;50.234;19.224;2023-06-04T06:03:47;98823.31;;;18.67;45.09
76050;BME280;64967;50.234;19.224;2023-06-04T06:06:14;98834.19;;;19.12;44.41
76050;BME280;64967;50.234;19.224;2023-06-04T06:08:41;98830.34;;;19.47;45.20
76050;BME280;64967;50.234;19.224;2023-06-04T06:11:08;98834.59;;;19.76;46.34
76050;BME280;64967;50.234;19.224;2023-06-04T06:13:37;98799.25;;;19.80;44.78
76050;BME280;64967;50.234;19.224;2023-06-04T06:16:04;98834.81;;;19.36;46.52
76050;BME280;64967;50.234;19.224;2023-06-04T06:18:31;98840.56;;;19.51;46.55
76050;BME280;64967;50.234;19.224;2023-06-04T06:20:59;98841.16;;;19.75;45.38
76050;BME280;64967;50.234;19.224;2023-06-04T06:23:26;98839.34;;;20.29;43.58
76050;BME280;64967;50.234;19.224;2023-06-04T06:25:53;98841.81;;;20.79;42.89
76050;BME280;64967;50.234;19.224;2023-06-04T06:28:20;98845.59;;;20.73;41.75
76050;BME280;64967;50.234;19.224;2023-06-04T06:30:48;98844.56;;;20.79;41.66
76050;BME280;64967;50.234;19.224;2023-06-04T06:33:15;98836.03;;;20.81;41.01
76050;BME280;64967;50.234;19.224;2023-06-04T06:35:42;98834.00;;;20.98;39.53
76050;BME280;64967;50.234;19.224;2023-06-04T06:38:13;98829.94;;;21.06;38.45
76050;BME280;64967;50.234;19.224;2023-06-04T06:40:43;98841.31;;;21.14;36.82
76050;BME280;64967;50.234;19.224;2023-06-04T06:43:10;98853.31;;;21.08;35.85
76050;BME280;64967;50.234;19.224;2023-06-04T06:45:37;98839.44;;;21.20;35.94
76050;BME280;64967;50.234;19.224;2023-06-04T06:48:05;98846.72;;;20.77;35.13
76050;BME280;64967;50.234;19.224;2023-06-04T06:50:32;98826.00;;;20.38;36.54
76050;BME280;64967;50.234;19.224;2023-06-04T06:53:05;98854.19;;;20.82;37.37
76050;BME280;64967;50.234;19.224;2023-06-04T06:55:32;98852.59;;;21.18;36.98
76050;BME280;64967;50.234;19.224;2023-06-04T06:57:59;98851.28;;;21.25;37.29
76050;BME280;64967;50.234;19.224;2023-06-04T07:00:27;98853.25;;;21.35;37.54
76050;BME280;64967;50.234;19.224;2023-06-04T07:02:57;98857.94;;;21.34;36.04
76050;BME280;64967;50.234;19.224;2023-06-04T07:05:24;98849.56;;;21.14;38.04
76050;BME280;64967;50.234;19.224;2023-06-04T07:07:51;98846.13;;;21.34;34.61
76050;BME280;64967;50.234;19.224;2023-06-04T07:10:18;98847.25;;;21.38;35.44
76050;BME280;64967;50.234;19.224;2023-06-04T07:12:45;98843.72;;;21.43;35.85
76050;BME280;64967;50.234;19.224;2023-06-04T07:15:12;98841.38;;;21.24;36.47
76050;BME280;64967;50.234;19.224;2023-06-04T07:17:39;98842.97;;;21.15;35.79
76050;BME280;64967;50.234;19.224;2023-06-04T07:20:07;98854.03;;;21.25;35.29
76050;BME280;64967;50.234;19.224;2023-06-04T07:22:35;98856.69;;;20.83;36.10
76050;BME280;64967;50.234;19.224;2023-06-04T07:25:03;98831.84;;;21.05;36.12
76050;BME280;64967;50.234;19.224;2023-06-04T07:27:30;98836.81;;;21.08;33.61
76050;BME280;64967;50.234;19.224;2023-06-04T07:29:57;98850.16;;;20.63;35.41
76050;BME280;64967;50.234;19.224;2023-06-04T07:32:24;98848.66;;;20.77;35.22
76050;BME280;64967;50.234;19.224;2023-06-04T07:34:51;98849.19;;;20.74;34.68
76050;BME280;64967;50.234;19.224;2023-06-04T07:37:18;98847.72;;;20.93;35.94
76050;BME280;64967;50.234;19.224;2023-06-04T07:39:45;98860.78;;;20.81;33.52
76050;BME280;64967;50.234;19.224;2023-06-04T07:42:13;98855.22;;;21.03;35.59
76050;BME280;64967;50.234;19.224;2023-06-04T07:44:40;98849.44;;;21.04;34.65
76050;BME280;64967;50.234;19.224;2023-06-04T07:47:08;98842.91;;;21.10;34.03
76050;BME280;64967;50.234;19.224;2023-06-04T07:49:35;98848.41;;;21.10;32.78
76050;BME280;64967;50.234;19.224;2023-06-04T07:52:16;98857.91;;;20.66;33.24
76050;BME280;64967;50.234;19.224;2023-06-04T07:54:43;98846.13;;;20.43;33.52
76050;BME280;64967;50.234;19.224;2023-06-04T07:57:10;98858.16;;;20.64;34.43
76050;BME280;64967;50.234;19.224;2023-06-04T07:59:37;98858.34;;;20.84;34.05
76050;BME280;64967;50.234;19.224;2023-06-04T08:02:04;98855.97;;;20.39;35.58
76050;BME280;64967;50.234;19.224;2023-06-04T08:04:31;98861.66;;;20.60;36.02
76050;BME280;64967;50.234;19.224;2023-06-04T08:06:59;98870.44;;;20.83;33.94
76050;BME280;64967;50.234;19.224;2023-06-04T08:09:26;98875.22;;;20.66;33.80
76050;BME280;64967;50.234;19.224;2023-06-04T08:11:53;98873.13;;;20.78;33.02
76050;BME280;64967;50.234;19.224;2023-06-04T08:14:19;98868.25;;;21.17;34.39
76050;BME280;64967;50.234;19.224;2023-06-04T08:16:48;98872.47;;;21.30;34.30
76050;BME280;64967;50.234;19.224;2023-06-04T08:19:16;98864.69;;;21.17;34.46
76050;BME280;64967;50.234;19.224;2023-06-04T08:21:42;98858.00;;;21.45;33.22
76050;BME280;64967;50.234;19.224;2023-06-04T08:24:11;98868.81;;;21.51;32.15
76050;BME280;64967;50.234;19.224;2023-06-04T08:26:38;98856.13;;;21.50;31.91
76050;BME280;64967;50.234;19.224;2023-06-04T08:29:06;98875.59;;;21.44;31.18
76050;BME280;64967;50.234;19.224;2023-06-04T08:31:33;98869.69;;;20.93;32.32
76050;BME280;64967;50.234;19.224;2023-06-04T08:34:00;98833.75;;;21.05;31.18
76050;BME280;64967;50.234;19.224;2023-06-04T08:36:27;98862.69;;;21.44;33.65
76050;BME280;64967;50.234;19.224;2023-06-04T08:38:54;98874.31;;;21.51;31.01
76050;BME280;64967;50.234;19.224;2023-06-04T08:41:29;98852.91;;;21.63;32.23
76050;BME280;64967;50.234;19.224;2023-06-04T08:43:57;98860.78;;;21.92;33.04
76050;BME280;64967;50.234;19.224;2023-06-04T08:46:28;98867.63;;;21.89;31.59
76050;BME280;64967;50.234;19.224;2023-06-04T08:49:00;98885.34;;;22.03;31.13
76050;BME280;64967;50.234;19.224;2023-06-04T08:51:32;98874.91;;;22.05;30.11
76050;BME280;64967;50.234;19.224;2023-06-04T08:54:00;98876.38;;;21.76;31.39
76050;BME280;64967;50.234;19.224;2023-06-04T08:56:28;98875.38;;;21.92;30.56
76050;BME280;64967;50.234;19.224;2023-06-04T08:59:01;98879.34;;;22.06;29.53
76050;BME280;64967;50.234;19.224;2023-06-04T09:01:30;98876.66;;;22.27;31.87
76050;BME280;64967;50.234;19.224;2023-06-04T09:03:59;98873.66;;;22.38;32.83
76050;BME280;64967;50.234;19.224;2023-06-04T09:06:28;98867.41;;;22.68;30.82
76050;BME280;64967;50.234;19.224;2023-06-04T09:08:56;98879.00;;;22.75;30.04
76050;BME280;64967;50.234;19.224;2023-06-04T09:11:38;98882.84;;;22.69;28.73
76050;BME280;64967;50.234;19.224;2023-06-04T09:14:08;98880.06;;;22.59;31.33
76050;BME280;64967;50.234;19.224;2023-06-04T09:16:47;98883.66;;;22.64;31.62
76050;BME280;64967;50.234;19.224;2023-06-04T09:19:15;98873.78;;;22.79;31.13
76050;BME280;64967;50.234;19.224;2023-06-04T09:21:53;98879.97;;;22.34;29.49
76050;BME280;64967;50.234;19.224;2023-06-04T09:24:38;98879.56;;;22.72;29.73
76050;BME280;64967;50.234;19.224;2023-06-04T09:27:20;98879.25;;;21.17;30.94
76050;BME280;64967;50.234;19.224;2023-06-04T09:29:53;98866.38;;;21.60;32.29
76050;BME280;64967;50.234;19.224;2023-06-04T09:32:29;98877.09;;;22.03;31.25
76050;BME280;64967;50.234;19.224;2023-06-04T09:35:11;98873.13;;;21.89;32.33
76050;BME280;64967;50.234;19.224;2023-06-04T09:37:40;98872.81;;;22.28;30.78
76050;BME280;64967;50.234;19.224;2023-06-04T09:40:09;98872.75;;;22.17;30.28
76050;BME280;64967;50.234;19.224;2023-06-04T09:42:47;98868.84;;;22.03;30.55
76050;BME280;64967;50.234;19.224;2023-06-04T09:47:55;98864.22;;;22.19;31.17
76050;BME280;64967;50.234;19.224;2023-06-04T09:50:33;98861.50;;;22.24;30.73
76050;BME280;64967;50.234;19.224;2023-06-04T09:53:18;98854.50;;;21.96;32.42
76050;BME280;64967;50.234;19.224;2023-06-04T09:55:56;98851.09;;;22.46;28.79
76050;BME280;64967;50.234;19.224;2023-06-04T09:58:28;98854.00;;;22.09;28.63
76050;BME280;64967;50.234;19.224;2023-06-04T10:00:56;98859.34;;;21.79;29.49
76050;BME280;64967;50.234;19.224;2023-06-04T10:03:34;98856.78;;;22.24;31.28
76050;BME280;64967;50.234;19.224;2023-06-04T10:06:04;98841.09;;;22.25;31.09
76050;BME280;64967;50.234;19.224;2023-06-04T10:08:32;98845.59;;;22.51;31.07
76050;BME280;64967;50.234;19.224;2023-06-04T10:11:02;98849.78;;;22.79;30.66
76050;BME280;64967;50.234;19.224;2023-06-04T10:13:31;98846.22;;;23.09;29.04
76050;BME280;64967;50.234;19.224;2023-06-04T10:16:02;98846.50;;;23.18;29.12
76050;BME280;64967;50.234;19.224;2023-06-04T10:18:30;98844.28;;;23.14;31.05
76050;BME280;64967;50.234;19.224;2023-06-04T10:20:59;98850.91;;;23.08;28.94
76050;BME280;64967;50.234;19.224;2023-06-04T10:23:27;98839.88;;;23.08;29.36
76050;BME280;64967;50.234;19.224;2023-06-04T10:25:56;98841.00;;;22.82;29.02
76050;BME280;64967;50.234;19.224;2023-06-04T10:28:23;98846.63;;;22.35;30.20
76050;BME280;64967;50.234;19.224;2023-06-04T10:30:51;98849.75;;;22.64;28.22
76050;BME280;64967;50.234;19.224;2023-06-04T10:33:19;98848.16;;;22.73;28.50
76050;BME280;64967;50.234;19.224;2023-06-04T10:35:47;98844.84;;;22.91;29.36
76050;BME280;64967;50.234;19.224;2023-06-04T10:38:14;98843.19;;;22.95;28.95
76050;BME280;64967;50.234;19.224;2023-06-04T10:40:43;98843.19;;;23.10;29.72
76050;BME280;64967;50.234;19.224;2023-06-04T10:43:12;98839.31;;;23.22;29.59
76050;BME280;64967;50.234;19.224;2023-06-04T10:45:40;98846.50;;;23.28;28.78
76050;BME280;64967;50.234;19.224;2023-06-04T10:48:10;98843.44;;;23.34;29.78
76050;BME280;64967;50.234;19.224;2023-06-04T10:50:51;98844.28;;;23.20;30.11
76050;BME280;64967;50.234;19.224;2023-06-04T10:53:19;98841.81;;;21.95;30.27
76050;BME280;64967;50.234;19.224;2023-06-04T10:55:48;98835.13;;;22.53;30.08
76050;BME280;64967;50.234;19.224;2023-06-04T10:58:15;98845.66;;;22.97;31.71
76050;BME280;64967;50.234;19.224;2023-06-04T11:00:44;98845.94;;;22.95;31.41
76050;BME280;64967;50.234;19.224;2023-06-04T11:03:16;98833.28;;;23.04;28.72
76050;BME280;64967;50.234;19.224;2023-06-04T11:05:46;98842.91;;;23.07;28.64
76050;BME280;64967;50.234;19.224;2023-06-04T11:08:14;98829.97;;;22.87;28.29
76050;BME280;64967;50.234;19.224;2023-06-04T11:10:52;98827.66;;;22.44;31.13
76050;BME280;64967;50.234;19.224;2023-06-04T11:13:23;98827.06;;;22.27;30.29
76050;BME280;64967;50.234;19.224;2023-06-04T11:15:52;98829.34;;;22.60;30.31
76050;BME280;64967;50.234;19.224;2023-06-04T11:18:21;98831.38;;;22.02;29.36
76050;BME280;64967;50.234;19.224;2023-06-04T11:20:50;98825.69;;;21.72;30.17
76050;BME280;64967;50.234;19.224;2023-06-04T11:23:24;98831.25;;;21.77;31.22
76050;BME280;64967;50.234;19.224;2023-06-04T11:25:55;98833.75;;;21.84;29.03
76050;BME280;64967;50.234;19.224;2023-06-04T11:28:22;98826.97;;;21.96;30.78
76050;BME280;64967;50.234;19.224;2023-06-04T11:31:02;98830.53;;;21.97;30.47
76050;BME280;64967;50.234;19.224;2023-06-04T11:33:46;98827.88;;;22.27;31.40
76050;BME280;64967;50.234;19.224;2023-06-04T11:36:27;98826.59;;;22.60;30.90
76050;BME280;64967;50.234;19.224;2023-06-04T11:38:56;98819.69;;;22.67;31.33
76050;BME280;64967;50.234;19.224;2023-06-04T11:41:27;98815.59;;;22.80;32.30
76050;BME280;64967;50.234;19.224;2023-06-04T11:43:56;98815.31;;;23.02;30.25
76050;BME280;64967;50.234;19.224;2023-06-04T11:46:24;98820.84;;;23.02;28.46
76050;BME280;64967;50.234;19.224;2023-06-04T11:48:54;98809.00;;;22.91;27.73
76050;BME280;64967;50.234;19.224;2023-06-04T11:51:22;98815.63;;;22.90;28.49
76050;BME280;64967;50.234;19.224;2023-06-04T11:53:50;98816.69;;;22.84;26.82
76050;BME280;64967;50.234;19.224;2023-06-04T11:56:17;98807.06;;;22.82;32.37
76050;BME280;64967;50.234;19.224;2023-06-04T11:58:45;98811.47;;;23.08;29.66
76050;BME280;64967;50.234;19.224;2023-06-04T12:01:13;98816.16;;;23.07;27.85
76050;BME280;64967;50.234;19.224;2023-06-04T12:03:41;98810.06;;;23.21;27.62
76050;BME280;64967;50.234;19.224;2023-06-04T12:06:10;98809.81;;;23.02;28.54
76050;BME280;64967;50.234;19.224;2023-06-04T12:08:51;98814.47;;;22.56;30.91
76050;BME280;64967;50.234;19.224;2023-06-04T12:11:37;98808.84;;;22.15;29.91
76050;BME280;64967;50.234;19.224;2023-06-04T12:14:06;98822.91;;;22.19;28.85
76050;BME280;64967;50.234;19.224;2023-06-04T12:16:34;98818.19;;;22.09;28.10
76050;BME280;64967;50.234;19.224;2023-06-04T12:19:11;98822.03;;;22.08;28.23
76050;BME280;64967;50.234;19.224;2023-06-04T12:21:39;98813.53;;;22.25;28.59
76050;BME280;64967;50.234;19.224;2023-06-04T12:24:13;98811.84;;;22.04;27.24
76050;BME280;64967;50.234;19.224;2023-06-04T12:26:42;98816.84;;;22.22;30.14
76050;BME280;64967;50.234;19.224;2023-06-04T12:29:15;98808.41;;;22.69;29.63
76050;BME280;64967;50.234;19.224;2023-06-04T12:31:44;98799.91;;;23.01;29.76
76050;BME280;64967;50.234;19.224;2023-06-04T12:34:15;98807.88;;;23.12;29.01
76050;BME280;64967;50.234;19.224;2023-06-04T12:36:44;98795.75;;;23.19;28.22
76050;BME280;64967;50.234;19.224;2023-06-04T12:39:11;98800.13;;;23.14;28.83
76050;BME280;64967;50.234;19.224;2023-06-04T12:41:48;98799.88;;;22.81;28.62
76050;BME280;64967;50.234;19.224;2023-06-04T12:44:21;98798.50;;;22.83;29.73
76050;BME280;64967;50.234;19.224;2023-06-04T12:46:54;98801.81;;;22.85;31.56
76050;BME280;64967;50.234;19.224;2023-06-04T12:49:47;98795.19;;;23.22;30.42
76050;BME280;64967;50.234;19.224;2023-06-04T12:52:44;98791.03;;;23.24;29.79
76050;BME280;64967;50.234;19.224;2023-06-04T12:55:31;98804.03;;;23.19;29.26
76050;BME280;64967;50.234;19.224;2023-06-04T12:58:02;98782.22;;;22.97;29.79
76050;BME280;64967;50.234;19.224;2023-06-04T13:00:29;98797.38;;;23.14;29.27
76050;BME280;64967;50.234;19.224;2023-06-04T13:03:00;98801.81;;;23.05;32.16
76050;BME280;64967;50.234;19.224;2023-06-04T13:05:41;98794.09;;;23.02;30.05
76050;BME280;64967;50.234;19.224;2023-06-04T13:08:32;98802.09;;;22.99;30.22
76050;BME280;64967;50.234;19.224;2023-06-04T13:11:24;98796.25;;;23.36;29.89
76050;BME280;64967;50.234;19.224;2023-06-04T13:14:05;98803.16;;;23.38;29.94
76050;BME280;64967;50.234;19.224;2023-06-04T13:16:32;98752.66;;;23.33;30.86
76050;BME280;64967;50.234;19.224;2023-06-04T13:18:59;98796.72;;;23.73;29.94
76050;BME280;64967;50.234;19.224;2023-06-04T13:21:27;98793.88;;;23.93;30.15
76050;BME280;64967;50.234;19.224;2023-06-04T13:23:57;98789.69;;;24.06;30.82